Terminal Aerodrome Forecast
Issued by NWS Tulsa, OK

Home | Current Version | Previous Version | Text Only | Print | Product List | Glossary On
Versions: 1 2 3 4 5 6 7 8 9 10 11 12 13 14 15 16 17 18 19
000
FTUS44 KTSA 241700 AAA
TAFTUL
TAF AMD
KTUL 241748Z 2418/2518 26011KT P6SM VCTS BKN020CB
     FM242000 31015G27KT P6SM BKN050
     FM250100 25003KT P6SM SKC=

USA.gov is the U.S. government's official web portal to all federal, state and local government web resources and services.